Arlit Airport


Codes: DRZL/
Name: Arlit Airport
City: Arlit
Country: Niger
Elevation: 1443 ft.

Photos at Arlit Airport


   Photos courtesy of SpottingLog. You can add your own sightings and photos by signing up for a free trial today.



No photos found.

Weather at Arlit Airport


Time (UTC)DescriptionTempratureWindCloud coverageVisibilityPressureHumidity
13-Jun-2024 03:00Broken Clouds30°C4 mph, SW59%10000m1009hPa37%
13-Jun-2024 06:00Broken Clouds31°C2 mph, SE61%10000m1010hPa36%
13-Jun-2024 09:00Few Clouds35°C4 mph, SE20%10000m1010hPa27%
13-Jun-2024 12:00Clear Sky42°C9 mph, NW0%10000m1009hPa12%
13-Jun-2024 15:00Clear Sky44°C7 mph, NW0%10000m1005hPa7%
13-Jun-2024 18:00Clear Sky40°C7 mph, NE0%10000m1005hPa6%
13-Jun-2024 21:00Clear Sky38°C13 mph, NE0%10000m1007hPa6%
14-Jun-2024 00:00Clear Sky35°C9 mph, NE0%10000m1007hPa7%
14-Jun-2024 03:00Clear Sky33°C9 mph, NE0%10000m1006hPa8%
14-Jun-2024 06:00Clear Sky34°C11 mph, NE0%10000m1007hPa8%
14-Jun-2024 09:00Clear Sky42°C9 mph, E0%10000m1007hPa5%
14-Jun-2024 12:00Clear Sky44°C7 mph, SE0%10000m1005hPa4%
14-Jun-2024 15:00Clear Sky45°C7 mph, SE0%10000m1002hPa3%
14-Jun-2024 18:00Clear Sky40°C7 mph, S0%10000m1003hPa4%
14-Jun-2024 21:00Clear Sky36°C4 mph, NE0%10000m1005hPa5%
15-Jun-2024 00:00Clear Sky35°C11 mph, E0%10000m1004hPa6%
15-Jun-2024 03:00Clear Sky34°C13 mph, SE0%10000m1004hPa7%
15-Jun-2024 06:00Clear Sky31°C16 mph, S0%10000m1007hPa36%
15-Jun-2024 09:00Clear Sky38°C22 mph, SW4%10000m1008hPa26%
15-Jun-2024 12:00Clear Sky42°C18 mph, SW2%10000m1006hPa17%
15-Jun-2024 15:00Few Clouds43°C11 mph, SW24%10000m1003hPa12%
15-Jun-2024 18:00Scattered Clouds36°C22 mph, SE34%10000m1005hPa22%
15-Jun-2024 21:00Light Rain33°C11 mph, SW84%10000m1007hPa30%
16-Jun-2024 00:00Broken Clouds32°C13 mph, S73%10000m1006hPa35%
16-Jun-2024 03:00Few Clouds30°C7 mph, SE14%10000m1005hPa40%
16-Jun-2024 06:00Clear Sky30°C7 mph, S10%10000m1008hPa41%
16-Jun-2024 09:00Clear Sky35°C4 mph, W3%10000m1008hPa29%
16-Jun-2024 12:00Clear Sky40°C7 mph, N2%10000m1006hPa16%
16-Jun-2024 15:00Clear Sky42°C2 mph, NE0%10000m1003hPa10%
16-Jun-2024 18:00Clear Sky39°C4 mph, SW0%10000m1004hPa10%
16-Jun-2024 21:00Clear Sky37°C7 mph, NW0%10000m1005hPa11%
17-Jun-2024 00:00Clear Sky34°C9 mph, NW1%10000m1006hPa14%
17-Jun-2024 03:00Clear Sky31°C13 mph, W4%10000m1007hPa34%
17-Jun-2024 06:00Clear Sky30°C13 mph, SW3%10000m1010hPa41%
17-Jun-2024 09:00Clear Sky36°C16 mph, W6%10000m1010hPa27%
17-Jun-2024 12:00Clear Sky41°C7 mph, W4%10000m1007hPa15%
17-Jun-2024 15:00Clear Sky43°C0 mph, NE1%10000m1004hPa9%
17-Jun-2024 18:00Clear Sky40°C4 mph, SE2%10000m1004hPa10%
17-Jun-2024 21:00Clear Sky37°C4 mph, SE0%10000m1006hPa12%
18-Jun-2024 00:00Clear Sky35°C7 mph, SW0%10000m1006hPa14%